Sapucaia, Brazil
Current Conditions -  °F | °C
As of 3:00 AM on Friday 28 Nov 2014 (Local Time) from SBGL Reporting Station
Broken Clouds Broken Clouds  
Wind Chill: 73°   Ceiling: 1500
Heat Index: 73°   Visibility: 6mi
Dew Point: 70°   Wind: 5mph
Humidity: 88%   Direction: 270°W
Pressure: 29.88"   Gusts: NA
Location:  22°S, 42.91°W
Report Text: SBGL 280500Z 27004KT 9999 FEW010 BKN015 23/21 Q1012
Loading
Personal Weather Stations






























Interactive Weather Map New forecast layout! Learn more

10-Day Weather Forecast

Advertisements
Track Severe Weather on mobile